createdAt,value
2023-05-18T00:00:02.791Z,8.00
2023-05-18T00:05:34.554Z,7.90
2023-05-18T00:11:03.867Z,7.80
2023-05-18T00:16:32.088Z,7.70
2023-05-18T00:22:02.385Z,7.70
2023-05-18T00:27:32.798Z,7.60
2023-05-18T00:33:01.071Z,7.60
2023-05-18T00:38:29.210Z,7.60
2023-05-18T00:43:58.222Z,7.50
2023-05-18T00:49:26.897Z,7.50
2023-05-18T00:54:55.069Z,7.40
2023-05-18T01:00:24.655Z,7.40
2023-05-18T01:05:58.102Z,7.30
2023-05-18T01:11:53.779Z,7.20
2023-05-18T01:17:52.992Z,7.20
2023-05-18T01:23:43.001Z,7.10
2023-05-18T01:29:14.277Z,7.00
2023-05-18T01:34:43.040Z,6.90
2023-05-18T01:40:11.764Z,6.80
2023-05-18T01:45:44.949Z,6.70
2023-05-18T01:51:14.960Z,6.60
2023-05-18T01:56:45.067Z,6.50
2023-05-18T02:02:14.556Z,6.40
2023-05-18T02:07:47.504Z,6.40
2023-05-18T02:13:16.451Z,6.30
2023-05-18T02:18:44.987Z,6.30
2023-05-18T02:24:15.418Z,6.20
2023-05-18T02:29:43.533Z,6.20
2023-05-18T02:35:11.761Z,6.20
2023-05-18T02:40:39.961Z,6.20
2023-05-18T02:46:08.440Z,6.20
2023-05-18T02:51:37.071Z,6.10
2023-05-18T02:57:05.703Z,6.20
2023-05-18T03:02:48.713Z,6.20
2023-05-18T03:08:18.404Z,6.30
2023-05-18T03:13:47.762Z,6.30
2023-05-18T03:19:16.647Z,6.30
2023-05-18T03:24:45.249Z,6.20
2023-05-18T03:30:16.944Z,6.20
2023-05-18T03:35:47.768Z,6.20
2023-05-18T03:41:17.158Z,6.20
2023-05-18T03:46:45.641Z,6.20
2023-05-18T03:52:15.558Z,6.20
2023-05-18T03:57:43.826Z,6.30
2023-05-18T04:03:14.923Z,6.30
2023-05-18T04:08:46.176Z,6.30
2023-05-18T04:14:14.402Z,6.40
2023-05-18T04:19:42.617Z,6.50
2023-05-18T04:25:11.792Z,6.60
2023-05-18T04:30:40.094Z,6.70
2023-05-18T04:36:09.654Z,6.80
2023-05-18T04:41:38.509Z,6.90
2023-05-18T04:47:08.696Z,7.10
2023-05-18T04:52:38.027Z,7.20
2023-05-18T04:58:06.501Z,7.40
2023-05-18T05:03:35.204Z,7.50
2023-05-18T05:09:03.781Z,7.70
2023-05-18T05:14:32.024Z,7.90
2023-05-18T05:20:00.280Z,8.10
2023-05-18T05:25:29.295Z,8.30
2023-05-18T05:30:57.628Z,8.50
2023-05-18T05:36:26.229Z,8.70
2023-05-18T05:41:55.901Z,8.90
2023-05-18T05:47:24.216Z,9.10
2023-05-18T05:52:52.856Z,9.30
2023-05-18T05:58:21.820Z,9.40
2023-05-18T06:03:54.854Z,9.40
2023-05-18T06:09:22.847Z,9.60
2023-05-18T06:14:57.490Z,9.70
2023-05-18T06:20:26.488Z,9.90
2023-05-18T06:25:56.000Z,10.10
2023-05-18T06:31:42.738Z,10.20
2023-05-18T06:37:21.449Z,10.30
2023-05-18T06:42:49.654Z,10.30
2023-05-18T06:48:47.260Z,10.50
2023-05-18T06:54:16.563Z,10.70
2023-05-18T06:59:45.557Z,10.90
2023-05-18T07:05:15.093Z,11.00
2023-05-18T07:10:43.334Z,11.10
2023-05-18T07:16:11.603Z,11.30
2023-05-18T07:21:39.805Z,11.50
2023-05-18T07:27:07.936Z,11.80
2023-05-18T07:32:36.248Z,12.10
2023-05-18T07:38:04.513Z,12.30
2023-05-18T07:43:33.734Z,12.40
2023-05-18T07:49:01.875Z,12.40
2023-05-18T07:54:29.980Z,12.50
2023-05-18T07:59:58.122Z,12.50
2023-05-18T08:05:26.519Z,12.70
2023-05-18T08:10:54.737Z,12.50
2023-05-18T08:16:27.029Z,12.40
2023-05-18T08:21:55.261Z,12.30
2023-05-18T08:27:23.414Z,12.70
2023-05-18T08:32:51.656Z,12.70
2023-05-18T08:38:19.893Z,12.70
2023-05-18T08:43:53.849Z,12.70
2023-05-18T08:49:22.319Z,12.50
2023-05-18T08:54:52.583Z,12.40
2023-05-18T09:00:22.908Z,12.40
2023-05-18T09:05:53.517Z,12.30
2023-05-18T09:11:25.521Z,12.40
2023-05-18T09:16:56.826Z,12.50
2023-05-18T09:22:25.026Z,12.40
2023-05-18T09:27:53.450Z,12.20
2023-05-18T09:33:22.079Z,12.30
2023-05-18T09:38:53.176Z,12.20
2023-05-18T09:44:32.756Z,12.30
2023-05-18T09:50:01.655Z,12.40
2023-05-18T09:55:30.024Z,12.40
2023-05-18T10:01:02.517Z,12.40
2023-05-18T10:06:31.748Z,12.40
2023-05-18T10:12:01.630Z,12.80
2023-05-18T10:17:30.929Z,13.00
2023-05-18T10:23:02.518Z,13.30
2023-05-18T10:28:44.589Z,13.50
2023-05-18T10:34:12.972Z,13.40
2023-05-18T10:39:45.827Z,13.10
2023-05-18T10:45:15.701Z,12.90
2023-05-18T10:50:44.281Z,12.80
2023-05-18T10:56:12.579Z,12.80
2023-05-18T11:01:42.263Z,13.00
2023-05-18T11:07:14.584Z,13.00
2023-05-18T11:12:43.307Z,13.00
2023-05-18T11:18:15.242Z,13.10
2023-05-18T11:23:43.454Z,13.20
2023-05-18T11:29:25.269Z,13.40
2023-05-18T11:34:55.119Z,13.50
2023-05-18T11:40:47.007Z,13.30
2023-05-18T11:46:18.862Z,13.30
2023-05-18T11:52:21.420Z,13.40
2023-05-18T11:57:54.451Z,13.50
2023-05-18T12:03:28.530Z,13.40
2023-05-18T12:08:56.818Z,13.70
2023-05-18T12:14:25.188Z,13.90
2023-05-18T12:19:53.686Z,13.90
2023-05-18T12:25:23.952Z,14.10
2023-05-18T12:30:56.932Z,13.90
2023-05-18T12:36:27.463Z,13.80
2023-05-18T12:42:09.609Z,13.80
2023-05-18T12:47:42.340Z,13.60
2023-05-18T12:53:10.581Z,13.40
2023-05-18T12:58:40.435Z,13.40
2023-05-18T13:04:12.290Z,13.50
2023-05-18T13:09:46.773Z,13.50
2023-05-18T13:15:16.745Z,13.40
2023-05-18T13:20:48.386Z,13.30
2023-05-18T13:26:19.178Z,13.30
2023-05-18T13:31:47.484Z,13.20
2023-05-18T13:37:16.311Z,13.20
2023-05-18T13:42:46.718Z,13.30
2023-05-18T13:48:15.162Z,13.30
2023-05-18T13:53:43.323Z,13.30
2023-05-18T13:59:12.654Z,13.20
2023-05-18T14:04:41.122Z,13.20
2023-05-18T14:10:10.718Z,13.10
2023-05-18T14:15:39.051Z,13.00
2023-05-18T14:21:07.177Z,13.00
2023-05-18T14:26:36.597Z,12.90
2023-05-18T14:32:07.255Z,12.80
2023-05-18T14:37:45.314Z,12.80
2023-05-18T14:43:13.480Z,13.00
2023-05-18T14:48:42.714Z,13.00
2023-05-18T14:54:10.937Z,12.90
2023-05-18T14:59:39.250Z,12.90
2023-05-18T15:05:11.490Z,13.00
2023-05-18T15:10:40.841Z,13.10
2023-05-18T15:16:09.058Z,13.20
2023-05-18T15:21:37.283Z,13.20
2023-05-18T15:27:06.264Z,13.20
2023-05-18T15:32:34.503Z,13.10
2023-05-18T15:38:03.180Z,13.10
2023-05-18T15:43:31.701Z,13.00
2023-05-18T15:48:59.934Z,13.00
2023-05-18T15:54:28.272Z,12.90
2023-05-18T15:59:56.655Z,12.80
2023-05-18T16:05:25.049Z,12.80
2023-05-18T16:10:55.851Z,12.80
2023-05-18T16:16:26.660Z,12.70
2023-05-18T16:21:54.977Z,12.70
2023-05-18T16:27:23.163Z,12.60
2023-05-18T16:32:51.480Z,12.60
2023-05-18T16:38:19.704Z,12.50
2023-05-18T16:43:48.051Z,12.50
2023-05-18T16:49:16.594Z,12.50
2023-05-18T16:54:45.709Z,12.40
2023-05-18T17:00:14.668Z,12.40
2023-05-18T17:05:43.254Z,12.40
2023-05-18T17:11:11.386Z,12.30
2023-05-18T17:16:41.161Z,12.30
2023-05-18T17:22:09.645Z,12.20
2023-05-18T17:27:37.747Z,12.20
2023-05-18T17:33:06.359Z,12.20
2023-05-18T17:38:34.629Z,12.20
2023-05-18T17:44:03.002Z,12.10
2023-05-18T17:49:32.638Z,12.10
2023-05-18T17:55:01.630Z,12.10
2023-05-18T18:00:31.473Z,12.00
2023-05-18T18:06:00.050Z,12.00
2023-05-18T18:11:28.338Z,11.90
2023-05-18T18:16:59.093Z,11.90
2023-05-18T18:22:28.836Z,11.80
2023-05-18T18:27:58.301Z,11.80
2023-05-18T18:33:26.711Z,11.70
2023-05-18T18:38:54.821Z,11.70
2023-05-18T18:44:23.105Z,11.60
2023-05-18T18:49:51.315Z,11.50
2023-05-18T18:55:20.530Z,11.50
2023-05-18T19:00:48.736Z,11.40
2023-05-18T19:06:17.590Z,11.30
2023-05-18T19:11:47.084Z,11.20
2023-05-18T19:17:15.677Z,11.10
2023-05-18T19:22:44.027Z,11.10
2023-05-18T19:28:12.492Z,11.10
2023-05-18T19:33:40.721Z,11.00
2023-05-18T19:39:09.865Z,11.00
2023-05-18T19:44:38.135Z,11.00
2023-05-18T19:50:07.174Z,10.90
2023-05-18T19:55:35.757Z,10.90
2023-05-18T20:01:04.419Z,10.90
2023-05-18T20:06:32.686Z,10.80
2023-05-18T20:12:01.131Z,10.70
2023-05-18T20:17:29.555Z,10.70
2023-05-18T20:22:57.905Z,10.70
2023-05-18T20:28:27.247Z,10.60
2023-05-18T20:33:57.694Z,10.60
2023-05-18T20:39:31.848Z,10.50
2023-05-18T20:45:00.327Z,10.40
2023-05-18T20:50:28.621Z,10.40
2023-05-18T20:56:01.225Z,10.40
2023-05-18T21:01:30.773Z,10.30
2023-05-18T21:06:58.987Z,10.30
2023-05-18T21:12:27.174Z,10.20
2023-05-18T21:17:55.431Z,10.20
2023-05-18T21:23:23.616Z,10.20
2023-05-18T21:28:52.984Z,10.20
2023-05-18T21:34:21.226Z,10.10
2023-05-18T21:39:49.474Z,10.10
2023-05-18T21:45:18.361Z,10.10
2023-05-18T21:50:48.614Z,10.00
2023-05-18T21:56:17.853Z,10.00
2023-05-18T22:01:48.104Z,10.00
2023-05-18T22:07:17.380Z,10.00
2023-05-18T22:12:45.683Z,9.90
2023-05-18T22:18:13.890Z,9.80
2023-05-18T22:23:42.421Z,9.80
2023-05-18T22:29:10.875Z,9.80
2023-05-18T22:34:39.216Z,9.90
2023-05-18T22:40:08.358Z,9.80
2023-05-18T22:45:36.636Z,9.80
2023-05-18T22:51:06.469Z,9.70
2023-05-18T22:56:37.163Z,9.70
2023-05-18T23:02:06.562Z,9.60
2023-05-18T23:07:37.873Z,9.60
2023-05-18T23:13:06.116Z,9.60
2023-05-18T23:18:34.424Z,9.50
2023-05-18T23:24:05.104Z,9.50
2023-05-18T23:29:37.462Z,9.40
2023-05-18T23:35:07.218Z,9.40
2023-05-18T23:40:35.751Z,9.40
2023-05-18T23:46:05.112Z,9.30
2023-05-18T23:51:36.414Z,9.30
2023-05-18T23:57:06.191Z,9.30
